createdAt,value
2022-12-20T00:04:28.154Z,84.62
2022-12-20T00:09:29.939Z,84.90
2022-12-20T00:14:31.957Z,84.79
2022-12-20T00:19:33.654Z,84.75
2022-12-20T00:24:35.633Z,84.81
2022-12-20T00:29:37.397Z,84.67
2022-12-20T00:34:39.090Z,85.16
2022-12-20T00:39:40.804Z,84.98
2022-12-20T00:44:42.465Z,84.94
2022-12-20T00:49:44.531Z,85.21
2022-12-20T00:54:46.249Z,85.47
2022-12-20T00:59:48.324Z,85.28
2022-12-20T01:04:50.348Z,85.35
2022-12-20T01:09:52.175Z,85.33
2022-12-20T01:14:53.927Z,85.48
2022-12-20T01:19:55.673Z,85.48
2022-12-20T01:24:57.750Z,85.56
2022-12-20T01:29:59.436Z,85.53
2022-12-20T01:35:01.298Z,85.26
2022-12-20T01:40:03.411Z,85.65
2022-12-20T01:45:13.136Z,85.58
2022-12-20T01:50:14.827Z,85.53
2022-12-20T01:55:26.515Z,85.52
2022-12-20T02:00:29.462Z,85.62
2022-12-20T02:05:39.150Z,85.70
2022-12-20T02:11:14.689Z,84.94
2022-12-20T02:16:24.887Z,84.94
2022-12-20T02:22:15.419Z,85.18
2022-12-20T02:27:19.848Z,85.68
2022-12-20T02:32:58.515Z,85.42
2022-12-20T02:38:03.776Z,85.29
2022-12-20T02:43:28.712Z,85.47
2022-12-20T02:48:33.641Z,85.48
2022-12-20T02:53:37.768Z,85.78
2022-12-20T02:59:17.284Z,85.50
2022-12-20T03:04:25.825Z,85.47
2022-12-20T03:09:28.775Z,85.71
2022-12-20T03:14:30.611Z,85.34
2022-12-20T03:19:35.328Z,85.45
2022-12-20T03:24:37.049Z,85.68
2022-12-20T03:29:44.585Z,85.94
2022-12-20T03:34:47.179Z,85.86
2022-12-20T03:39:52.795Z,85.73
2022-12-20T03:44:55.412Z,85.84
2022-12-20T03:49:59.624Z,86.10
2022-12-20T03:55:03.703Z,86.30
2022-12-20T04:00:14.064Z,86.17
2022-12-20T04:05:21.939Z,85.99
2022-12-20T04:10:23.666Z,85.86
2022-12-20T04:15:25.611Z,85.77
2022-12-20T04:20:28.036Z,85.66
2022-12-20T04:25:43.731Z,85.96
2022-12-20T04:30:46.440Z,85.76
2022-12-20T04:35:54.573Z,85.52
2022-12-20T04:40:58.605Z,85.77
2022-12-20T04:46:03.060Z,85.76
2022-12-20T04:51:04.966Z,85.77
2022-12-20T04:56:07.540Z,86.40
2022-12-20T05:01:09.653Z,86.48
2022-12-20T05:06:20.062Z,86.51
2022-12-20T05:11:22.516Z,86.25
2022-12-20T05:16:26.152Z,86.07
2022-12-20T05:21:47.224Z,86.07
2022-12-20T05:26:49.627Z,86.23
2022-12-20T05:31:53.758Z,86.33
2022-12-20T05:36:56.042Z,86.05
2022-12-20T05:42:00.811Z,85.87
2022-12-20T05:47:03.458Z,86.38
2022-12-20T05:52:08.406Z,86.19
2022-12-20T05:57:12.435Z,86.22
2022-12-20T06:02:16.187Z,86.45
2022-12-20T06:07:19.636Z,86.65
2022-12-20T06:12:24.814Z,86.43
2022-12-20T06:17:27.353Z,87.72
2022-12-20T06:22:29.707Z,87.50
2022-12-20T06:27:32.293Z,86.48
2022-12-20T06:32:41.918Z,86.22
2022-12-20T06:37:45.296Z,86.27
2022-12-20T06:42:49.431Z,86.43
2022-12-20T06:47:52.977Z,85.97
2022-12-20T06:52:55.515Z,86.43
2022-12-20T06:57:59.488Z,87.06
2022-12-20T07:03:02.143Z,86.76
2022-12-20T07:08:04.834Z,86.90
2022-12-20T07:13:06.748Z,86.75
2022-12-20T07:18:08.612Z,86.93
2022-12-20T07:23:10.358Z,86.95
2022-12-20T07:28:11.999Z,86.93
2022-12-20T07:33:13.748Z,86.55
2022-12-20T07:38:15.634Z,87.17
2022-12-20T07:43:17.367Z,87.05
2022-12-20T07:48:21.842Z,87.13
2022-12-20T07:53:25.673Z,87.15
2022-12-20T07:58:29.159Z,87.16
2022-12-20T08:03:36.765Z,87.18
2022-12-20T08:08:42.407Z,86.85
2022-12-20T08:13:46.779Z,87.25
2022-12-20T08:18:49.522Z,87.27
2022-12-20T08:23:51.952Z,87.36
2022-12-20T08:28:56.746Z,87.23
2022-12-20T08:33:59.156Z,87.38
2022-12-20T08:39:05.212Z,87.49
2022-12-20T08:44:07.071Z,87.42
2022-12-20T08:49:08.754Z,87.38
2022-12-20T08:54:10.621Z,87.45
2022-12-20T08:59:12.250Z,87.64
2022-12-20T09:04:15.344Z,87.54
2022-12-20T09:09:18.110Z,87.55
2022-12-20T09:14:20.134Z,87.73
2022-12-20T09:19:24.746Z,87.54
2022-12-20T09:24:26.957Z,87.70
2022-12-20T09:29:35.317Z,87.87
2022-12-20T09:34:37.834Z,87.82
2022-12-20T09:39:39.617Z,87.81
2022-12-20T09:44:42.799Z,88.13
2022-12-20T09:49:49.281Z,88.16
2022-12-20T09:55:09.482Z,87.91
2022-12-20T10:00:17.499Z,87.84
2022-12-20T10:05:44.034Z,87.76
2022-12-20T10:11:10.069Z,87.56
2022-12-20T10:16:50.183Z,86.93
2022-12-20T10:22:18.165Z,86.95
2022-12-20T10:27:21.366Z,86.99
2022-12-20T10:32:24.206Z,86.90
2022-12-20T10:37:25.982Z,86.70
2022-12-20T10:42:41.369Z,86.74
2022-12-20T10:47:46.108Z,86.75
2022-12-20T10:53:24.159Z,86.78
2022-12-20T10:58:27.321Z,86.85
2022-12-20T11:03:29.785Z,86.94
2022-12-20T11:08:47.668Z,87.19
2022-12-20T11:13:54.140Z,86.45
2022-12-20T11:19:01.752Z,86.43
2022-12-20T11:24:12.180Z,86.33
2022-12-20T11:29:28.542Z,86.70
2022-12-20T11:34:42.756Z,86.95
2022-12-20T11:40:16.326Z,87.13
2022-12-20T11:45:42.854Z,87.33
2022-12-20T11:51:15.925Z,87.39
2022-12-20T11:56:30.996Z,87.19
2022-12-20T12:01:38.632Z,87.32
2022-12-20T12:07:13.711Z,87.03
2022-12-20T12:12:29.507Z,86.88
2022-12-20T12:17:45.308Z,86.82
2022-12-20T12:22:51.126Z,86.58
2022-12-20T12:27:52.934Z,86.53
2022-12-20T12:33:07.403Z,86.68
2022-12-20T12:38:26.232Z,86.78
2022-12-20T12:43:46.269Z,86.85
2022-12-20T12:48:55.103Z,86.91
2022-12-20T12:54:10.185Z,86.47
2022-12-20T12:59:34.968Z,86.67
2022-12-20T13:05:10.887Z,86.73
2022-12-20T13:10:19.002Z,86.77
2022-12-20T13:15:20.732Z,86.94
2022-12-20T13:20:28.464Z,86.84
2022-12-20T13:25:31.264Z,87.06
2022-12-20T13:30:33.491Z,86.94
2022-12-20T13:35:55.071Z,87.55
2022-12-20T13:41:00.246Z,87.59
2022-12-20T13:46:14.673Z,88.10
2022-12-20T13:51:25.515Z,88.26
2022-12-20T13:56:27.336Z,88.63
2022-12-20T14:01:31.230Z,88.01
2022-12-20T14:06:33.734Z,88.08
2022-12-20T14:11:46.747Z,87.89
2022-12-20T14:16:48.528Z,88.31
2022-12-20T14:21:50.391Z,88.13
2022-12-20T14:26:53.739Z,87.92
2022-12-20T14:31:55.632Z,88.42
2022-12-20T14:37:30.343Z,88.25
2022-12-20T14:42:37.123Z,88.46
2022-12-20T14:47:51.477Z,88.50
2022-12-20T14:52:53.332Z,88.84
2022-12-20T14:57:56.747Z,89.13
2022-12-20T15:03:18.775Z,88.66
2022-12-20T15:08:37.508Z,88.99
2022-12-20T15:13:39.075Z,88.78
2022-12-20T15:18:40.960Z,88.64
2022-12-20T15:23:47.630Z,88.91
2022-12-20T15:28:49.758Z,89.57
2022-12-20T15:33:51.590Z,89.79
2022-12-20T15:39:12.202Z,90.13
2022-12-20T15:44:21.609Z,90.18
2022-12-20T15:49:25.966Z,90.13
2022-12-20T15:54:33.736Z,90.10
2022-12-20T16:04:58.720Z,90.96
2022-12-20T16:10:00.740Z,90.97
2022-12-20T16:15:02.469Z,91.12
2022-12-20T16:20:04.950Z,91.49
2022-12-20T16:25:06.922Z,90.97
2022-12-20T16:30:09.201Z,90.83
2022-12-20T16:35:27.510Z,90.91
2022-12-20T16:40:32.052Z,90.74
2022-12-20T16:45:34.657Z,90.80
2022-12-20T16:50:41.525Z,90.86
2022-12-20T16:55:43.301Z,90.86
2022-12-20T17:00:45.205Z,91.12
2022-12-20T17:05:46.995Z,91.29
2022-12-20T17:10:49.036Z,91.51
2022-12-20T17:15:50.922Z,91.45
2022-12-20T17:20:52.669Z,91.45
2022-12-20T17:25:54.866Z,91.69
2022-12-20T17:30:57.916Z,91.91
2022-12-20T17:36:02.896Z,91.69
2022-12-20T17:41:05.825Z,91.50
2022-12-20T17:46:08.068Z,91.34
2022-12-20T17:51:16.027Z,91.51
2022-12-20T17:56:25.197Z,91.39
2022-12-20T18:01:29.922Z,91.49
2022-12-20T18:06:34.300Z,91.37
2022-12-20T18:11:36.171Z,91.15
2022-12-20T18:16:41.073Z,90.82
2022-12-20T18:21:43.006Z,91.36
2022-12-20T18:26:45.151Z,91.10
2022-12-20T18:31:46.936Z,91.34
2022-12-20T18:36:48.852Z,91.51
2022-12-20T18:41:50.551Z,91.71
2022-12-20T18:46:52.206Z,91.77
2022-12-20T18:51:53.841Z,91.75
2022-12-20T18:56:56.969Z,91.73
2022-12-20T19:01:58.928Z,92.10
2022-12-20T19:07:00.707Z,92.20
2022-12-20T19:12:03.927Z,92.39
2022-12-20T19:17:05.819Z,92.58
2022-12-20T19:22:07.595Z,92.38
2022-12-20T19:27:10.525Z,92.36
2022-12-20T19:32:12.429Z,92.09
2022-12-20T19:37:14.086Z,92.09
2022-12-20T19:42:24.934Z,92.37
2022-12-20T19:47:27.356Z,92.38
2022-12-20T19:52:29.544Z,92.81
2022-12-20T19:57:31.240Z,92.68
2022-12-20T20:02:33.121Z,92.75
2022-12-20T20:07:34.920Z,92.61
2022-12-20T20:12:38.323Z,92.67
2022-12-20T20:17:39.996Z,92.65
2022-12-20T20:22:42.645Z,92.43
2022-12-20T20:27:44.937Z,92.26
2022-12-20T20:32:47.023Z,92.25
2022-12-20T20:37:48.673Z,92.40
2022-12-20T20:42:51.630Z,92.17
2022-12-20T20:47:53.288Z,91.97
2022-12-20T20:52:55.206Z,92.28
2022-12-20T20:57:56.910Z,91.93
2022-12-20T21:02:59.654Z,92.26
2022-12-20T21:08:01.595Z,92.04
2022-12-20T21:13:04.664Z,92.22
2022-12-20T21:18:09.128Z,92.10
2022-12-20T21:23:11.808Z,92.33
2022-12-20T21:28:19.376Z,92.52
2022-12-20T21:33:22.884Z,92.47
2022-12-20T21:38:24.623Z,92.65
2022-12-20T21:43:26.584Z,92.47
2022-12-20T21:48:29.646Z,92.57
2022-12-20T21:53:33.142Z,92.28
2022-12-20T21:58:34.981Z,91.91
2022-12-20T22:03:38.017Z,91.98
2022-12-20T22:08:39.825Z,91.90
2022-12-20T22:13:42.544Z,92.28
2022-12-20T22:18:48.143Z,91.89
2022-12-20T22:23:50.447Z,92.00
2022-12-20T22:28:55.032Z,91.81
2022-12-20T22:33:57.869Z,91.80
2022-12-20T22:39:00.119Z,91.58
2022-12-20T22:44:03.028Z,91.74
2022-12-20T22:49:04.860Z,92.04
2022-12-20T22:54:06.711Z,92.00
2022-12-20T22:59:08.402Z,92.30
2022-12-20T23:04:10.070Z,92.12
2022-12-20T23:09:11.732Z,92.33
2022-12-20T23:14:38.000Z,92.79
2022-12-20T23:19:58.576Z,92.76
2022-12-20T23:25:00.741Z,92.68
2022-12-20T23:30:04.705Z,92.70
2022-12-20T23:35:12.277Z,92.45
2022-12-20T23:40:16.317Z,92.49
2022-12-20T23:45:18.050Z,92.47
2022-12-20T23:50:19.909Z,92.50
2022-12-20T23:55:21.962Z,92.63
